createdAt,value
2018-05-14T00:02:21.969Z,77.20
2018-05-14T00:04:49.436Z,77.60
2018-05-14T00:07:16.900Z,77.90
2018-05-14T00:09:44.341Z,78.00
2018-05-14T00:12:11.803Z,77.80
2018-05-14T00:14:39.236Z,77.90
2018-05-14T00:17:07.441Z,77.50
2018-05-14T00:19:34.904Z,77.50
2018-05-14T00:22:02.374Z,77.30
2018-05-14T00:24:29.815Z,77.40
2018-05-14T00:26:57.267Z,77.40
2018-05-14T00:29:24.712Z,77.40
2018-05-14T00:31:52.245Z,77.60
2018-05-14T00:34:20.464Z,77.50
2018-05-14T00:36:47.917Z,77.50
2018-05-14T00:39:15.349Z,77.60
2018-05-14T00:41:42.805Z,77.30
2018-05-14T00:44:10.242Z,77.30
2018-05-14T00:46:37.684Z,77.40
2018-05-14T00:49:05.123Z,77.50
2018-05-14T00:51:33.345Z,77.70
2018-05-14T00:54:00.788Z,77.70
2018-05-14T00:56:28.248Z,77.70
2018-05-14T00:58:55.689Z,78.00
2018-05-14T01:01:23.132Z,78.20
2018-05-14T01:03:50.593Z,78.20
2018-05-14T01:06:18.060Z,78.30
2018-05-14T01:08:45.496Z,78.20
2018-05-14T01:11:12.957Z,78.50
2018-05-14T01:13:40.407Z,78.80
2018-05-14T01:16:07.837Z,78.80
2018-05-14T01:18:35.300Z,78.90
2018-05-14T01:21:02.754Z,79.10
2018-05-14T01:23:30.208Z,79.20
2018-05-14T01:25:58.452Z,79.40
2018-05-14T01:28:26.688Z,79.60
2018-05-14T01:30:54.145Z,79.50
2018-05-14T01:33:22.357Z,79.80
2018-05-14T01:35:50.556Z,79.80
2018-05-14T01:38:18.022Z,79.80
2018-05-14T01:40:45.452Z,80.10
2018-05-14T01:43:12.917Z,80.30
2018-05-14T01:45:40.469Z,80.30
2018-05-14T01:48:08.690Z,81.30
2018-05-14T01:50:36.114Z,80.50
2018-05-14T01:53:03.580Z,80.90
2018-05-14T01:55:31.074Z,80.90
2018-05-14T01:57:59.226Z,81.10
2018-05-14T02:00:26.683Z,81.10
2018-05-14T02:02:54.122Z,81.20
2018-05-14T02:05:21.683Z,81.20
2018-05-14T02:07:49.115Z,81.50
2018-05-14T02:10:17.391Z,81.60
2018-05-14T02:12:45.613Z,82.30
2018-05-14T02:15:13.070Z,81.60
2018-05-14T02:17:40.502Z,81.70
2018-05-14T02:20:07.929Z,82.00
2018-05-14T02:22:36.188Z,82.10
2018-05-14T02:25:03.649Z,82.10
2018-05-14T02:27:31.156Z,82.10
2018-05-14T02:29:58.625Z,82.10
2018-05-14T02:32:26.097Z,82.30
2018-05-14T02:34:53.574Z,82.40
2018-05-14T02:37:21.056Z,82.50
2018-05-14T02:39:49.282Z,82.60
2018-05-14T02:42:16.740Z,82.60
2018-05-14T02:44:44.221Z,82.70
2018-05-14T02:47:11.709Z,82.90
2018-05-14T02:49:39.188Z,82.90
2018-05-14T02:52:06.649Z,83.00
2018-05-14T02:54:34.249Z,83.00
2018-05-14T02:57:01.707Z,83.10
2018-05-14T02:59:29.177Z,83.40
2018-05-14T03:01:57.435Z,83.50
2018-05-14T03:04:24.929Z,83.40
2018-05-14T03:06:52.412Z,83.40
2018-05-14T03:09:19.867Z,83.50
2018-05-14T03:11:47.340Z,83.40
2018-05-14T03:14:14.788Z,83.40
2018-05-14T03:16:42.277Z,83.60
2018-05-14T03:19:09.733Z,83.60
2018-05-14T03:21:37.212Z,83.90
2018-05-14T03:24:05.432Z,83.90
2018-05-14T03:26:32.924Z,83.70
2018-05-14T03:29:00.425Z,83.70
2018-05-14T03:31:27.910Z,83.90
2018-05-14T03:33:55.364Z,83.90
2018-05-14T03:36:22.828Z,83.90
2018-05-14T03:38:50.317Z,84.00
2018-05-14T03:41:17.793Z,84.00
2018-05-14T03:43:45.308Z,84.10
2018-05-14T03:46:12.784Z,83.90
2018-05-14T03:48:40.245Z,84.00
2018-05-14T03:51:07.753Z,84.20
2018-05-14T03:53:35.208Z,84.30
2018-05-14T03:56:02.677Z,84.40
2018-05-14T03:58:41.832Z,84.50
2018-05-14T04:01:14.737Z,84.50
2018-05-14T04:03:54.029Z,84.60
2018-05-14T04:06:33.491Z,84.70
2018-05-14T04:09:00.988Z,84.70
2018-05-14T04:11:30.880Z,84.80
2018-05-14T04:13:58.336Z,85.00
2018-05-14T04:16:25.863Z,85.00
2018-05-14T04:18:54.041Z,85.20
2018-05-14T04:21:21.528Z,85.20
2018-05-14T04:23:48.984Z,85.20
2018-05-14T04:26:16.469Z,85.40
2018-05-14T04:28:44.717Z,85.40
2018-05-14T04:31:12.200Z,85.40
2018-05-14T04:33:40.432Z,85.50
2018-05-14T04:36:07.913Z,85.50
2018-05-14T04:38:35.388Z,85.50
2018-05-14T04:41:03.644Z,85.60
2018-05-14T04:43:31.114Z,85.60
2018-05-14T04:45:59.391Z,85.80
2018-05-14T04:48:27.617Z,85.60
2018-05-14T04:50:55.113Z,85.60
2018-05-14T04:53:23.332Z,86.50
2018-05-14T04:55:50.788Z,85.60
2018-05-14T04:58:18.261Z,85.50
2018-05-14T05:00:45.724Z,85.70
2018-05-14T05:03:13.212Z,85.60
2018-05-14T05:05:40.672Z,85.60
2018-05-14T05:08:08.159Z,85.60
2018-05-14T05:10:35.635Z,85.60
2018-05-14T05:13:03.097Z,85.60
2018-05-14T05:15:30.604Z,85.50
2018-05-14T05:17:58.858Z,85.30
2018-05-14T05:20:26.296Z,85.30
2018-05-14T05:22:53.995Z,85.20
2018-05-14T05:25:21.392Z,85.30
2018-05-14T05:27:48.876Z,85.30
2018-05-14T05:30:16.356Z,85.40
2018-05-14T05:32:43.808Z,85.30
2018-05-14T05:35:11.290Z,85.20
2018-05-14T05:37:39.626Z,85.00
2018-05-14T05:40:07.021Z,85.00
2018-05-14T05:42:35.262Z,85.00
2018-05-14T05:45:02.783Z,85.00
2018-05-14T05:47:30.238Z,85.00
2018-05-14T05:49:57.717Z,84.90
2018-05-14T05:52:25.233Z,85.00
2018-05-14T05:54:52.668Z,85.00
2018-05-14T05:57:20.127Z,85.00
2018-05-14T05:59:47.600Z,84.90
2018-05-14T06:02:15.860Z,84.40
2018-05-14T06:04:43.337Z,84.40
2018-05-14T06:07:11.560Z,84.20
2018-05-14T06:09:39.044Z,84.20
2018-05-14T06:12:06.518Z,83.90
2018-05-14T06:14:34.114Z,83.80
2018-05-14T06:17:01.651Z,83.60
2018-05-14T06:19:29.100Z,83.70
2018-05-14T06:21:57.340Z,83.30
2018-05-14T06:24:24.807Z,83.20
2018-05-14T06:26:52.324Z,82.90
2018-05-14T06:29:19.787Z,83.10
2018-05-14T06:31:47.268Z,83.10
2018-05-14T06:34:14.768Z,83.20
2018-05-14T06:36:43.004Z,82.00
2018-05-14T06:39:10.596Z,81.90
2018-05-14T06:41:38.840Z,80.70
2018-05-14T06:44:06.328Z,80.70
2018-05-14T06:46:33.796Z,79.90
2018-05-14T06:49:02.041Z,78.40
2018-05-14T06:51:29.509Z,78.30
2018-05-14T06:53:56.968Z,77.70
2018-05-14T06:56:24.480Z,77.30
2018-05-14T06:58:51.944Z,77.10
2018-05-14T07:01:19.408Z,75.70
2018-05-14T07:03:46.889Z,74.70
2018-05-14T07:06:14.361Z,74.10
2018-05-14T07:08:41.836Z,74.00
2018-05-14T07:11:10.061Z,72.20
2018-05-14T07:13:37.535Z,71.40
2018-05-14T07:16:04.996Z,70.70
2018-05-14T07:18:32.507Z,69.50
2018-05-14T07:20:59.997Z,69.30
2018-05-14T07:23:27.444Z,69.00
2018-05-14T07:25:54.929Z,69.50
2018-05-14T07:28:22.412Z,69.50
2018-05-14T07:30:50.652Z,69.00
2018-05-14T07:33:18.114Z,69.00
2018-05-14T07:35:45.605Z,69.60
2018-05-14T07:38:13.836Z,68.80
2018-05-14T07:40:41.318Z,68.90
2018-05-14T07:43:09.616Z,68.60
2018-05-14T07:45:37.867Z,67.80
2018-05-14T07:48:05.348Z,67.70
2018-05-14T07:50:33.568Z,66.90
2018-05-14T07:53:01.149Z,66.80
2018-05-14T07:55:28.614Z,66.70
2018-05-14T07:57:56.077Z,66.50
2018-05-14T08:00:23.657Z,67.10
2018-05-14T08:02:51.013Z,66.90
2018-05-14T08:05:18.497Z,66.80
2018-05-14T08:07:46.024Z,65.00
2018-05-14T08:10:13.489Z,63.80
2018-05-14T08:12:41.745Z,64.10
2018-05-14T08:15:09.221Z,64.00
2018-05-14T08:20:10.513Z,63.70
2018-05-14T08:22:37.997Z,62.60
2018-05-14T08:25:05.488Z,62.40
2018-05-14T08:27:33.716Z,61.70
2018-05-14T08:30:01.173Z,61.70
2018-05-14T08:32:28.645Z,62.40
2018-05-14T08:34:56.102Z,60.80
2018-05-14T08:37:23.584Z,60.40
2018-05-14T08:39:51.028Z,59.90
2018-05-14T08:42:18.531Z,59.40
2018-05-14T08:44:45.976Z,59.40
2018-05-14T08:47:13.466Z,58.60
2018-05-14T08:49:40.921Z,58.10
2018-05-14T08:52:08.400Z,58.40
2018-05-14T08:54:35.956Z,57.40
2018-05-14T08:57:03.372Z,56.10
2018-05-14T08:59:30.845Z,55.10
2018-05-14T09:01:58.284Z,54.40
2018-05-14T09:04:25.767Z,53.70
2018-05-14T09:06:53.223Z,53.30
2018-05-14T09:09:20.705Z,52.00
2018-05-14T09:11:48.164Z,50.30
2018-05-14T09:14:15.648Z,49.30
2018-05-14T09:16:43.105Z,48.30
2018-05-14T09:19:10.572Z,47.70
2018-05-14T09:21:38.074Z,47.20
2018-05-14T09:24:05.538Z,45.90
2018-05-14T09:26:33.024Z,44.80
2018-05-14T09:29:00.480Z,45.00
2018-05-14T09:31:27.968Z,44.70
2018-05-14T09:33:56.188Z,44.30
2018-05-14T09:36:23.673Z,44.30
2018-05-14T09:38:51.128Z,44.30
2018-05-14T09:41:18.613Z,42.80
2018-05-14T09:43:46.069Z,42.60
2018-05-14T09:46:14.340Z,42.60
2018-05-14T09:48:42.568Z,43.00
2018-05-14T09:51:10.019Z,43.00
2018-05-14T09:53:37.501Z,42.50
2018-05-14T09:56:05.717Z,40.90
2018-05-14T09:58:33.213Z,40.80
2018-05-14T10:01:00.668Z,41.60
2018-05-14T10:03:28.531Z,40.30
2018-05-14T10:05:55.965Z,39.40
2018-05-14T10:08:23.445Z,39.50
2018-05-14T10:10:50.928Z,41.00
2018-05-14T10:13:18.407Z,40.70
2018-05-14T10:15:45.876Z,40.90
2018-05-14T10:18:13.348Z,40.10
2018-05-14T10:20:40.836Z,38.20
2018-05-14T10:23:08.316Z,39.40
2018-05-14T10:25:35.783Z,39.00
2018-05-14T10:28:03.266Z,39.60
2018-05-14T10:30:30.721Z,39.40
2018-05-14T10:32:58.984Z,38.90
2018-05-14T10:35:26.469Z,38.80
2018-05-14T10:37:55.061Z,40.10
2018-05-14T10:40:22.594Z,40.00
2018-05-14T10:42:51.859Z,41.00
2018-05-14T10:45:19.352Z,41.00
2018-05-14T10:47:46.825Z,39.40
2018-05-14T10:50:15.065Z,38.40
2018-05-14T10:52:42.522Z,38.30
2018-05-14T10:55:10.000Z,37.60
2018-05-14T10:57:38.228Z,36.30
2018-05-14T11:00:05.742Z,35.70
2018-05-14T11:02:48.374Z,35.70
2018-05-14T11:05:15.869Z,35.00
2018-05-14T11:07:43.364Z,35.30
2018-05-14T11:10:12.151Z,35.20
2018-05-14T11:12:39.596Z,34.60
2018-05-14T11:15:07.861Z,34.30
2018-05-14T11:17:35.317Z,34.20
2018-05-14T11:20:14.575Z,34.10
2018-05-14T11:22:42.056Z,34.70
2018-05-14T11:25:09.545Z,35.40
2018-05-14T11:27:37.070Z,34.70
2018-05-14T11:30:04.667Z,34.30
2018-05-14T11:32:32.357Z,33.90
2018-05-14T11:34:59.879Z,33.20
2018-05-14T11:37:27.341Z,32.80
2018-05-14T11:39:55.007Z,32.20
2018-05-14T11:42:22.820Z,32.30
2018-05-14T11:44:50.432Z,32.10
2018-05-14T11:47:23.161Z,32.20
2018-05-14T11:49:50.836Z,32.60
2018-05-14T11:52:18.332Z,32.80
2018-05-14T11:54:45.794Z,33.40
2018-05-14T11:57:13.277Z,33.60
2018-05-14T11:59:40.728Z,33.80
2018-05-14T12:02:18.437Z,33.20
2018-05-14T12:04:45.965Z,33.20
2018-05-14T12:07:13.457Z,33.00
2018-05-14T12:09:40.900Z,32.60
2018-05-14T12:12:08.495Z,33.20
2018-05-14T12:14:35.848Z,33.00
2018-05-14T12:17:03.324Z,33.50
2018-05-14T12:19:31.554Z,32.00
2018-05-14T12:21:59.049Z,31.90
2018-05-14T12:24:26.502Z,31.90
2018-05-14T12:26:54.901Z,31.50
2018-05-14T12:29:22.382Z,31.30
2018-05-14T12:31:49.869Z,30.80
2018-05-14T12:34:17.325Z,30.80
2018-05-14T12:36:44.809Z,30.60
2018-05-14T12:39:12.305Z,30.90
2018-05-14T12:41:40.529Z,30.50
2018-05-14T12:44:08.013Z,30.40
2018-05-14T12:46:35.488Z,30.10
2018-05-14T12:49:02.964Z,30.20
2018-05-14T12:51:31.229Z,30.90
2018-05-14T12:53:58.765Z,30.80
2018-05-14T12:56:26.216Z,30.90
2018-05-14T12:58:53.720Z,30.60
2018-05-14T13:01:21.233Z,30.60
2018-05-14T13:03:48.713Z,31.30
2018-05-14T13:06:16.181Z,30.30
2018-05-14T13:08:43.661Z,30.10
2018-05-14T13:11:11.123Z,30.20
2018-05-14T13:13:39.370Z,30.10
2018-05-14T13:16:06.882Z,30.00
2018-05-14T13:18:34.350Z,30.20
2018-05-14T13:21:01.801Z,29.30
2018-05-14T13:23:29.278Z,29.20
2018-05-14T13:25:56.733Z,29.80
2018-05-14T13:28:24.232Z,29.90
2018-05-14T13:30:51.701Z,29.80
2018-05-14T13:33:19.176Z,29.20
2018-05-14T13:35:46.679Z,29.90
2018-05-14T13:38:14.153Z,29.60
2018-05-14T13:40:41.620Z,29.40
2018-05-14T13:43:09.137Z,29.60
2018-05-14T13:45:36.597Z,30.00
2018-05-14T13:48:04.061Z,29.50
2018-05-14T13:50:31.547Z,28.80
2018-05-14T13:52:59.049Z,28.50
2018-05-14T13:55:26.541Z,28.90
2018-05-14T13:57:54.016Z,29.20
2018-05-14T14:00:24.493Z,29.20
2018-05-14T14:02:51.945Z,29.70
2018-05-14T14:05:19.428Z,29.90
2018-05-14T14:07:46.939Z,29.30
2018-05-14T14:10:15.216Z,29.50
2018-05-14T14:12:43.464Z,29.00
2018-05-14T14:15:10.960Z,29.40
2018-05-14T14:17:39.217Z,30.10
2018-05-14T14:20:06.672Z,30.00
2018-05-14T14:22:34.155Z,30.10
2018-05-14T14:25:02.385Z,30.20
2018-05-14T14:27:29.868Z,30.10
2018-05-14T14:29:57.325Z,30.40
2018-05-14T14:32:24.816Z,30.90
2018-05-14T14:34:53.064Z,30.20
2018-05-14T14:37:20.541Z,30.00
2018-05-14T14:39:48.964Z,30.80
2018-05-14T14:42:16.442Z,30.70
2018-05-14T14:44:43.931Z,31.50
2018-05-14T14:47:11.398Z,32.10
2018-05-14T14:49:39.814Z,34.10
2018-05-14T14:52:07.292Z,34.10
2018-05-14T14:54:34.776Z,35.00
2018-05-14T14:57:02.240Z,36.30
2018-05-14T14:59:29.742Z,37.10
2018-05-14T15:01:57.192Z,37.70
2018-05-14T15:04:24.783Z,38.60
2018-05-14T15:06:52.170Z,39.40
2018-05-14T15:09:19.648Z,40.30
2018-05-14T15:11:47.111Z,40.70
2018-05-14T15:14:14.645Z,41.30
2018-05-14T15:16:42.145Z,41.70
2018-05-14T15:19:09.622Z,41.80
2018-05-14T15:21:37.851Z,42.60
2018-05-14T15:24:05.301Z,42.50
2018-05-14T15:26:32.816Z,42.70
2018-05-14T15:29:00.280Z,43.20
2018-05-14T15:31:27.734Z,43.70
2018-05-14T15:33:55.220Z,43.90
2018-05-14T15:36:22.676Z,44.40
2018-05-14T15:38:50.156Z,44.70
2018-05-14T15:41:17.679Z,45.70
2018-05-14T15:43:45.090Z,45.50
2018-05-14T15:46:12.549Z,45.20
2018-05-14T15:48:40.030Z,45.40
2018-05-14T15:51:07.493Z,45.70
2018-05-14T15:53:34.981Z,46.00
2018-05-14T15:56:02.441Z,45.90
2018-05-14T15:58:29.901Z,46.00
2018-05-14T16:00:58.145Z,45.40
2018-05-14T16:03:25.596Z,45.30
2018-05-14T16:05:53.073Z,45.30
2018-05-14T16:08:20.529Z,45.60
2018-05-14T16:10:48.013Z,45.60
2018-05-14T16:13:15.462Z,45.50
2018-05-14T16:15:42.917Z,45.20
2018-05-14T16:18:10.393Z,45.10
2018-05-14T16:20:37.878Z,45.40
2018-05-14T16:23:05.345Z,45.30
2018-05-14T16:25:33.584Z,46.00
2018-05-14T16:28:01.049Z,46.00
2018-05-14T16:30:28.528Z,45.90
2018-05-14T16:32:55.980Z,45.60
2018-05-14T16:35:23.441Z,45.40
2018-05-14T16:37:50.934Z,45.90
2018-05-14T16:40:18.409Z,45.80
2018-05-14T16:42:45.885Z,45.80
2018-05-14T16:45:13.353Z,46.10
2018-05-14T16:47:41.600Z,47.00
2018-05-14T16:50:09.085Z,46.90
2018-05-14T16:52:36.540Z,47.50
2018-05-14T16:55:04.021Z,47.60
2018-05-14T16:57:31.475Z,47.60
2018-05-14T16:59:58.933Z,47.90
2018-05-14T17:02:26.411Z,47.90
2018-05-14T17:04:53.917Z,48.30
2018-05-14T17:07:21.449Z,48.40
2018-05-14T17:09:49.693Z,48.90
2018-05-14T17:12:17.185Z,48.90
2018-05-14T17:14:44.684Z,48.70
2018-05-14T17:17:12.638Z,48.80
2018-05-14T17:19:40.109Z,48.90
2018-05-14T17:22:07.560Z,49.10
2018-05-14T17:24:35.045Z,49.30
2018-05-14T17:27:02.520Z,49.20
2018-05-14T17:29:29.980Z,49.30
2018-05-14T17:31:57.458Z,49.60
2018-05-14T17:34:25.697Z,49.40
2018-05-14T17:36:53.177Z,49.40
2018-05-14T17:39:20.633Z,49.30
2018-05-14T17:41:48.081Z,49.70
2018-05-14T17:44:15.565Z,49.30
2018-05-14T17:46:43.789Z,49.90
2018-05-14T17:49:11.277Z,49.90
2018-05-14T17:51:38.770Z,49.90
2018-05-14T17:54:06.998Z,50.80
2018-05-14T17:56:34.462Z,50.80
2018-05-14T17:59:01.942Z,51.10
2018-05-14T18:01:29.395Z,51.30
2018-05-14T18:03:56.873Z,51.40
2018-05-14T18:06:25.092Z,51.60
2018-05-14T18:08:52.577Z,51.50
2018-05-14T18:11:20.038Z,52.00
2018-05-14T18:13:47.509Z,51.90
2018-05-14T18:16:15.013Z,53.00
2018-05-14T18:18:42.473Z,52.80
2018-05-14T18:21:11.727Z,52.70
2018-05-14T18:23:44.852Z,52.80
2018-05-14T18:26:17.270Z,52.80
2018-05-14T18:28:48.735Z,53.10
2018-05-14T18:31:21.820Z,53.20
2018-05-14T18:33:49.988Z,53.90
2018-05-14T18:36:17.444Z,53.80
2018-05-14T18:38:44.919Z,53.60
2018-05-14T18:41:12.370Z,53.80
2018-05-14T18:43:39.853Z,54.00
2018-05-14T18:46:08.077Z,54.30
2018-05-14T18:48:35.548Z,54.40
2018-05-14T18:51:03.010Z,54.90
2018-05-14T18:53:30.481Z,55.20
2018-05-14T18:55:57.965Z,55.00
2018-05-14T18:58:25.433Z,55.60
2018-05-14T19:00:53.652Z,56.60
2018-05-14T19:03:21.137Z,56.60
2018-05-14T19:05:48.617Z,55.90
2018-05-14T19:08:16.084Z,55.90
2018-05-14T19:10:49.261Z,56.50
2018-05-14T19:13:16.705Z,56.20
2018-05-14T19:15:49.872Z,56.60
2018-05-14T19:18:17.361Z,56.30
2018-05-14T19:20:45.952Z,56.50
2018-05-14T19:23:19.017Z,57.10
2018-05-14T19:25:46.472Z,56.70
2018-05-14T19:28:19.568Z,56.90
2018-05-14T19:30:47.001Z,57.00
2018-05-14T19:33:20.845Z,57.40
2018-05-14T19:35:54.038Z,57.60
2018-05-14T19:38:21.531Z,58.10
2018-05-14T19:40:51.685Z,58.70
2018-05-14T19:43:19.149Z,58.70
2018-05-14T19:45:46.662Z,58.70
2018-05-14T19:48:14.115Z,58.30
2018-05-14T19:50:41.595Z,58.40
2018-05-14T19:53:09.095Z,58.90
2018-05-14T19:55:36.592Z,59.20
2018-05-14T19:58:04.010Z,59.30
2018-05-14T20:00:31.522Z,59.20
2018-05-14T20:02:59.744Z,59.90
2018-05-14T20:05:27.197Z,59.80
2018-05-14T20:07:54.677Z,60.50
2018-05-14T20:10:22.137Z,61.50
2018-05-14T20:12:49.616Z,62.10
2018-05-14T20:15:17.864Z,63.20
2018-05-14T20:17:45.329Z,62.90
2018-05-14T20:20:12.844Z,63.00
2018-05-14T20:22:40.270Z,63.10
2018-05-14T20:25:08.517Z,63.20
2018-05-14T20:27:35.977Z,63.20
2018-05-14T20:30:03.472Z,63.90
2018-05-14T20:32:33.229Z,63.90
2018-05-14T20:35:04.759Z,63.90
2018-05-14T20:37:32.276Z,64.20
2018-05-14T20:39:59.742Z,64.40
2018-05-14T20:42:27.224Z,64.50
2018-05-14T20:44:54.704Z,65.20
2018-05-14T20:47:22.164Z,65.10
2018-05-14T20:49:49.625Z,65.20
2018-05-14T20:52:17.183Z,65.40
2018-05-14T20:54:45.712Z,66.60
2018-05-14T20:57:13.175Z,65.90
2018-05-14T20:59:40.700Z,65.80
2018-05-14T21:02:08.115Z,66.70
2018-05-14T21:04:35.593Z,66.50
2018-05-14T21:07:03.058Z,66.80
2018-05-14T21:09:30.542Z,67.30
2018-05-14T21:11:59.225Z,67.60
2018-05-14T21:14:26.700Z,67.80
2018-05-14T21:16:54.161Z,67.90
2018-05-14T21:19:21.645Z,68.00
2018-05-14T21:21:49.898Z,68.20
2018-05-14T21:24:17.353Z,68.20
2018-05-14T21:26:44.814Z,68.30
2018-05-14T21:29:12.297Z,68.70
2018-05-14T21:31:40.677Z,69.30
2018-05-14T21:34:08.897Z,69.50
2018-05-14T21:36:36.373Z,69.50
2018-05-14T21:39:03.901Z,69.60
2018-05-14T21:41:31.381Z,69.70
2018-05-14T21:43:58.844Z,69.80
2018-05-14T21:46:26.352Z,70.00
2018-05-14T21:48:54.586Z,70.40
2018-05-14T21:51:22.067Z,70.40
2018-05-14T21:53:49.522Z,70.80
2018-05-14T21:56:16.997Z,70.90
2018-05-14T21:58:45.246Z,71.30
2018-05-14T22:01:12.697Z,71.20
2018-05-14T22:03:40.173Z,71.50
2018-05-14T22:06:07.627Z,71.70
2018-05-14T22:08:35.096Z,72.10
2018-05-14T22:11:02.558Z,72.40
2018-05-14T22:13:30.046Z,72.60
2018-05-14T22:15:57.497Z,72.60
2018-05-14T22:18:24.944Z,72.90
2018-05-14T22:20:53.188Z,73.20
2018-05-14T22:23:20.641Z,73.20
2018-05-14T22:25:48.117Z,73.50
2018-05-14T22:28:15.572Z,73.50
2018-05-14T22:30:43.049Z,73.90
2018-05-14T22:33:11.308Z,74.20
2018-05-14T22:35:38.791Z,74.00
2018-05-14T22:38:07.032Z,74.10
2018-05-14T22:40:34.493Z,74.10
2018-05-14T22:43:01.981Z,74.40
2018-05-14T22:45:30.253Z,74.70
2018-05-14T22:47:59.285Z,74.10
2018-05-14T22:50:26.760Z,74.50
2018-05-14T22:52:54.244Z,75.00
2018-05-14T22:55:21.701Z,74.80
2018-05-14T22:57:49.180Z,74.90
2018-05-14T23:00:31.017Z,75.80
2018-05-14T23:02:58.492Z,75.00
2018-05-14T23:05:25.960Z,75.20
2018-05-14T23:07:53.436Z,75.30
2018-05-14T23:10:20.892Z,75.60
2018-05-14T23:12:48.389Z,75.60
2018-05-14T23:15:15.847Z,75.80
2018-05-14T23:17:43.332Z,75.80
2018-05-14T23:20:10.805Z,76.00
2018-05-14T23:22:42.102Z,76.00
2018-05-14T23:25:09.562Z,76.20
2018-05-14T23:27:37.043Z,76.40
2018-05-14T23:30:04.549Z,76.60
2018-05-14T23:32:32.024Z,76.50
2018-05-14T23:35:00.252Z,76.80
2018-05-14T23:37:27.761Z,76.70
2018-05-14T23:39:55.993Z,77.30
2018-05-14T23:42:23.448Z,77.10
2018-05-14T23:44:50.958Z,77.10
2018-05-14T23:47:19.177Z,76.80
2018-05-14T23:49:46.637Z,77.10
2018-05-14T23:52:14.120Z,77.20
2018-05-14T23:54:42.341Z,77.50
2018-05-14T23:57:09.832Z,77.50
2018-05-14T23:59:37.285Z,77.70
